Time;durP1;ratioP1;P1;durP2;ratioP2;P2;SDS_P1;SDS_P2;PMS_P1;PMS_P2;Temp;Humidity;BMP_temperature;BMP_pressure;BME280_temperature;BME280_humidity;BME280_pressure;Samples;Min_cycle;Max_cycle;Signal;HPM_P1;HPM_P2
2022/07/17 00:00:15;;;;;;;622.73;219.33;;;13.10;1.00;;;;;;4907850;29;20203;-91
2022/07/17 00:02:53;;;;;;;625.00;219.07;;;13.10;1.00;;;;;;4908135;29;20570;-94
2022/07/17 00:05:29;;;;;;;626.00;220.83;;;13.00;1.00;;;;;;4919997;29;20295;-93
2022/07/17 00:08:16;;;;;;;625.37;223.17;;;13.00;1.00;;;;;;4920125;29;20281;-91
2022/07/17 00:13:39;;;;;;;627.40;223.60;;;12.90;99.90;;;;;;4912467;29;20228;-93
2022/07/17 00:16:28;;;;;;;626.23;224.53;;;12.90;16.90;;;;;;4907301;29;20654;-92
2022/07/17 00:19:22;;;;;;;623.70;218.63;;;12.90;99.90;;;;;;4913175;29;20398;-91
2022/07/17 00:22:08;;;;;;;623.50;219.17;;;12.90;99.90;;;;;;4920932;29;20200;-91
2022/07/17 00:24:43;;;;;;;626.30;218.40;;;12.80;99.90;;;;;;4911788;29;20203;-90
2022/07/17 00:27:30;;;;;;;626.73;221.03;;;12.80;99.90;;;;;;4919699;29;20214;-92
2022/07/17 00:30:21;;;;;;;627.23;221.97;;;12.70;99.90;;;;;;4909426;29;20255;-91
2022/07/17 00:33:10;;;;;;;620.33;216.10;;;12.70;99.90;;;;;;4919137;29;20204;-93
2022/07/17 00:35:50;;;;;;;621.17;212.83;;;12.70;99.90;;;;;;4920094;29;20211;-92
2022/07/17 00:38:49;;;;;;;621.50;214.60;;;12.70;99.90;;;;;;4907454;29;20231;-92
2022/07/17 00:41:31;;;;;;;619.80;210.50;;;12.60;1.00;;;;;;4920001;29;20194;-90
2022/07/17 00:44:21;;;;;;;619.17;215.23;;;12.60;99.90;;;;;;4919051;29;20670;-93
2022/07/17 00:46:57;;;;;;;620.33;216.60;;;12.60;1.00;;;;;;4918847;29;20206;-92
2022/07/17 00:52:19;;;;;;;620.50;214.20;;;12.50;99.90;;;;;;4903675;29;20750;-92
2022/07/17 00:55:16;;;;;;;620.30;217.13;;;12.40;99.90;;;;;;4917276;29;20210;-91
2022/07/17 00:57:54;;;;;;;625.37;215.43;;;12.40;99.90;;;;;;4908943;29;20228;-92
2022/07/17 01:03:12;;;;;;;;;;;12.30;99.90;;;;;;4916353;29;20202;-92
2022/07/17 01:08:35;;;;;;;621.10;210.30;;;12.20;99.90;;;;;;4917946;29;20218;-94
2022/07/17 01:11:24;;;;;;;;;;;;;;;;;;;;;
2022/07/17 01:14:00;;;;;;;620.73;211.50;;;12.10;1.00;;;;;;4918568;29;20202;-91
2022/07/17 01:16:44;;;;;;;622.57;211.30;;;12.10;1.00;;;;;;4918889;29;20197;-90
2022/07/17 01:19:34;;;;;;;621.37;211.20;;;12.00;1.00;;;;;;4917967;29;20198;-90
2022/07/17 01:22:11;;;;;;;617.50;207.67;;;12.00;1.00;;;;;;4918760;29;20206;-91
2022/07/17 01:25:00;;;;;;;666.07;243.27;;;11.90;1.00;;;;;;4918823;29;20206;-91
2022/07/17 01:27:43;;;;;;;617.97;207.20;;;11.90;1.00;;;;;;4919204;29;20297;-94
2022/07/17 01:30:31;;;;;;;616.80;207.27;;;11.80;1.00;;;;;;4918017;29;20237;-92
2022/07/17 01:33:17;;;;;;;620.83;203.47;;;11.80;1.00;;;;;;4917546;29;20202;-94
2022/07/17 01:36:14;;;;;;;621.03;201.50;;;11.70;1.00;;;;;;4919410;29;20202;-90
2022/07/17 01:39:16;;;;;;;619.13;200.33;;;11.70;1.00;;;;;;4918970;29;20696;-92
2022/07/17 01:42:22;;;;;;;622.67;197.80;;;11.70;1.00;;;;;;4873927;29;20208;-92
2022/07/17 01:45:11;;;;;;;618.13;200.67;;;11.60;1.00;;;;;;4917459;29;20208;-95
2022/07/17 01:51:09;;;;;;;615.67;192.80;;;11.50;99.90;;;;;;4898510;29;20389;-92
2022/07/17 01:54:22;;;;;;;617.67;195.67;;;11.50;1.00;;;;;;4904984;29;20575;-93
2022/07/17 01:59:55;;;;;;;615.07;191.67;;;11.40;1.00;;;;;;4916077;29;20200;-90
2022/07/17 02:03:01;;;;;;;614.93;190.97;;;11.40;1.00;;;;;;4918124;29;20213;-92
2022/07/17 02:05:40;;;;;;;;;;;11.30;1.00;;;;;;4917867;29;20301;-93
2022/07/17 02:08:21;;;;;;;617.97;191.70;;;11.30;1.00;;;;;;4917820;29;20419;-92
2022/07/17 02:10:52;;;;;;;616.07;193.00;;;11.30;1.00;;;;;;4917142;29;20558;-90
2022/07/17 02:13:28;;;;;;;615.40;193.07;;;11.30;1.00;;;;;;4916541;29;20732;-94
2022/07/17 02:16:11;;;;;;;613.57;190.93;;;11.30;1.00;;;;;;4917683;29;20636;-93
2022/07/17 02:18:47;;;;;;;;;;;11.20;1.00;;;;;;4917737;29;20200;-92
2022/07/17 02:21:20;;;;;;;;;;;11.20;1.00;;;;;;4917712;29;19934;-95
2022/07/17 02:24:12;;;;;;;614.03;187.77;;;11.20;1.00;;;;;;4917550;29;20047;-91
2022/07/17 02:27:01;;;;;;;615.27;193.17;;;11.20;1.40;;;;;;4917932;29;20204;-92
2022/07/17 02:29:45;;;;;;;614.20;194.00;;;11.20;52.40;;;;;;4905124;29;20307;-91
2022/07/17 02:32:31;;;;;;;617.13;191.30;;;11.10;99.90;;;;;;4917436;29;20212;-91
2022/07/17 02:35:16;;;;;;;;;;;11.10;99.90;;;;;;4917267;29;20576;-91
2022/07/17 02:37:51;;;;;;;;;;;11.10;71.90;;;;;;4917518;29;20270;-92
2022/07/17 02:40:30;;;;;;;631.07;199.27;;;11.00;99.00;;;;;;4917251;29;20050;-91
2022/07/17 02:43:17;;;;;;;197.97;177.33;;;11.00;99.90;;;;;;4909311;29;20217;-93
2022/07/17 02:46:14;;;;;;;463.60;251.57;;;11.00;99.90;;;;;;4920692;29;20208;-91
2022/07/17 02:48:59;;;;;;;576.37;248.53;;;11.00;1.00;;;;;;4920715;29;20216;-92
2022/07/17 02:52:02;;;;;;;629.73;247.23;;;11.00;99.90;;;;;;4908030;29;20210;-92
2022/07/17 02:54:41;;;;;;;615.90;242.13;;;11.00;1.00;;;;;;4920386;29;20202;-92
2022/07/17 02:57:21;;;;;;;603.43;246.67;;;11.00;1.00;;;;;;4920629;29;20201;-91
2022/07/17 02:59:55;;;;;;;561.33;246.07;;;10.90;99.90;;;;;;4920150;29;20672;-93
2022/07/17 03:02:23;;;;;;;642.40;239.73;;;10.90;99.90;;;;;;4919995;29;20215;-89
2022/07/17 03:04:56;;;;;;;596.07;245.43;;;10.90;99.90;;;;;;4922430;29;20200;-90
2022/07/17 03:07:23;;;;;;;606.50;248.80;;;10.90;1.00;;;;;;4922077;29;20622;-87
2022/07/17 03:09:50;;;;;;;641.57;233.70;;;10.90;1.00;;;;;;4923898;29;20711;-87
2022/07/17 03:12:17;;;;;;;638.73;230.97;;;10.90;1.00;;;;;;4922543;29;20204;-88
2022/07/17 03:14:44;;;;;;;638.90;227.43;;;11.00;1.00;;;;;;4922169;29;20205;-89
2022/07/17 03:17:14;;;;;;;636.93;225.00;;;11.00;1.00;;;;;;4922952;29;20205;-91
2022/07/17 03:19:43;;;;;;;638.33;229.93;;;11.00;1.00;;;;;;4921964;29;20219;-90
2022/07/17 03:22:10;;;;;;;640.87;233.30;;;11.00;1.00;;;;;;4922261;29;20221;-89
2022/07/17 03:24:53;;;;;;;642.57;228.63;;;11.00;1.00;;;;;;4923754;29;20208;-92
2022/07/17 03:27:25;;;;;;;640.20;224.33;;;11.10;1.00;;;;;;4922847;29;20204;-86
2022/07/17 03:29:53;;;;;;;643.20;236.53;;;11.10;1.00;;;;;;4926044;29;20195;-89
2022/07/17 03:32:20;;;;;;;639.97;225.63;;;11.20;1.00;;;;;;4928061;29;20216;-89
2022/07/17 03:35:02;;;;;;;640.93;238.10;;;11.20;1.00;;;;;;4926969;29;20209;-90
2022/07/17 03:37:33;;;;;;;640.07;231.97;;;11.30;1.00;;;;;;4927466;29;20209;-90
2022/07/17 03:40:00;;;;;;;644.47;234.27;;;11.30;1.00;;;;;;4926973;29;20198;-91
2022/07/17 03:42:39;;;;;;;645.37;237.87;;;11.30;1.00;;;;;;4927534;29;20205;-88
2022/07/17 03:45:07;;;;;;;638.77;220.40;;;11.40;1.00;;;;;;4926479;29;20213;-90
2022/07/17 03:47:36;;;;;;;642.93;238.97;;;11.50;1.00;;;;;;4928621;29;20267;-88
2022/07/17 03:50:06;;;;;;;641.50;235.80;;;11.50;1.00;;;;;;4928447;28;20588;-89
2022/07/17 03:52:33;;;;;;;639.30;233.60;;;11.60;99.90;;;;;;4927842;29;20202;-89
2022/07/17 03:55:05;;;;;;;641.30;245.03;;;11.70;99.90;;;;;;4929405;29;20202;-89
2022/07/17 03:57:32;;;;;;;632.80;235.27;;;12.00;1.00;;;;;;4928041;29;20205;-89
2022/07/17 04:00:02;;;;;;;641.97;241.17;;;12.90;1.00;;;;;;4929990;29;20179;-91
2022/07/17 04:02:29;;;;;;;648.13;250.37;;;14.00;99.90;;;;;;4928517;29;20235;-89
2022/07/17 04:04:56;;;;;;;647.67;253.30;;;15.10;1.00;;;;;;4926567;29;20189;-91
2022/07/17 04:07:28;;;;;;;652.27;266.90;;;16.10;1.00;;;;;;4927760;29;20218;-88
2022/07/17 04:09:57;;;;;;;644.20;276.67;;;17.10;99.90;;;;;;4918059;29;20761;-87
2022/07/17 04:12:24;;;;;;;;;;;18.00;1.00;;;;;;4918403;29;20208;-88
2022/07/17 04:14:51;;;;;;;658.83;317.53;;;18.80;1.00;;;;;;4918091;29;20387;-89
2022/07/17 04:17:18;;;;;;;666.65;338.50;;;19.50;99.90;;;;;;4918536;29;20213;-88
2022/07/17 04:19:45;;;;;;;;;;;20.20;1.00;;;;;;4918669;29;20198;-90
2022/07/17 04:22:12;;;;;;;;;;;20.90;1.00;;;;;;4918710;29;19959;-86
2022/07/17 04:24:40;;;;;;;;;;;21.50;1.00;;;;;;4918602;29;19927;-88
2022/07/17 04:27:07;;;;;;;;;;;22.10;99.90;;;;;;4917992;29;20375;-87
2022/07/17 04:29:40;;;;;;;688.07;450.43;;;22.70;1.00;;;;;;4920504;29;20071;-89
2022/07/17 04:32:15;;;;;;;694.03;477.10;;;23.40;1.00;;;;;;4927357;29;20202;-88
2022/07/17 04:34:41;;;;;;;;;;;23.90;99.90;;;;;;4927185;29;20272;-89
2022/07/17 04:37:14;;;;;;;705.87;525.17;;;24.50;99.90;;;;;;4928306;29;20089;-89
2022/07/17 04:39:43;;;;;;;711.37;548.17;;;24.90;1.00;;;;;;4926831;29;20230;-90
2022/07/17 04:42:10;;;;;;;712.63;568.23;;;25.20;1.00;;;;;;4929032;29;20645;-87
2022/07/17 04:44:37;;;;;;;712.70;573.50;;;25.50;1.00;;;;;;4927791;29;20202;-89
2022/07/17 04:47:13;;;;;;;718.50;603.17;;;25.80;1.00;;;;;;4927089;29;20225;-88
2022/07/17 04:49:46;;;;;;;719.07;611.63;;;25.90;1.00;;;;;;4927846;29;20209;-89
2022/07/17 04:52:25;;;;;;;;;;;26.20;1.00;;;;;;4928116;29;20190;-90
2022/07/17 04:54:59;;;;;;;754.37;651.53;;;26.50;1.00;;;;;;4927749;29;20436;-87
2022/07/17 04:57:26;;;;;;;;;;;26.90;1.00;;;;;;4927518;28;20653;-92
2022/07/17 04:59:54;;;;;;;760.63;670.93;;;27.10;1.00;;;;;;4927193;29;20061;-91
2022/07/17 05:02:24;;;;;;;757.67;674.47;;;27.40;99.90;;;;;;4927677;29;20209;-92
2022/07/17 05:04:51;;;;;;;;;;;27.60;99.90;;;;;;4928532;29;20201;-90
2022/07/17 05:07:24;;;;;;;798.30;713.53;;;27.80;99.90;;;;;;4927193;29;20054;-88
2022/07/17 05:09:58;;;;;;;802.20;716.35;;;28.10;99.90;;;;;;4926926;29;20210;-89
2022/07/17 05:12:25;;;;;;;821.57;734.47;;;28.20;99.90;;;;;;4914964;29;20597;-91
2022/07/17 05:14:58;;;;;;;814.40;728.00;;;28.30;99.90;;;;;;4925824;29;20206;-89
2022/07/17 05:17:25;;;;;;;823.35;738.55;;;28.40;99.90;;;;;;4927211;29;20064;-89
2022/07/17 05:19:55;;;;;;;832.75;747.13;;;28.40;99.90;;;;;;4927248;29;20197;-89
2022/07/17 05:22:21;;;;;;;;;;;28.70;99.90;;;;;;4927272;29;20650;-87
2022/07/17 05:24:58;;;;;;;830.78;744.33;;;29.10;99.90;;;;;;4924741;29;20051;-87
2022/07/17 05:27:30;;;;;;;852.75;767.33;;;29.50;99.90;;;;;;4927226;29;20245;-91
2022/07/17 05:29:57;;;;;;;860.10;774.33;;;30.00;99.90;;;;;;4925539;29;20235;-88
2022/07/17 05:32:24;;;;;;;;;;;30.10;99.90;;;;;;4928128;29;20074;-91
2022/07/17 05:34:53;;;;;;;;;;;30.30;99.90;;;;;;4926313;29;19988;-90
2022/07/17 05:37:20;;;;;;;908.90;821.97;;;30.40;99.90;;;;;;4926445;29;20044;-88
2022/07/17 05:39:51;;;;;;;891.70;805.80;;;30.60;99.90;;;;;;4925581;29;20226;-89
2022/07/17 05:42:19;;;;;;;934.75;847.33;;;30.90;99.90;;;;;;4925203;29;20194;-95
2022/07/17 05:45:00;;;;;;;;;;;;;;;;;;;;;
2022/07/17 05:47:30;;;;;;;942.50;855.47;;;31.40;99.90;;;;;;4924708;28;20636;-89
2022/07/17 05:49:57;;;;;;;948.72;861.10;;;31.50;99.90;;;;;;4926446;29;20224;-89
2022/07/17 05:52:25;;;;;;;955.35;867.55;;;31.60;99.90;;;;;;4924902;29;20193;-88
2022/07/17 05:54:52;;;;;;;953.83;867.10;;;31.70;99.90;;;;;;4927055;29;20202;-89
2022/07/17 05:57:21;;;;;;;945.30;858.50;;;31.50;99.90;;;;;;4925415;29;20197;-87
2022/07/17 05:59:54;;;;;;;;;;;31.70;99.90;;;;;;4925618;29;20572;-87
2022/07/17 06:02:21;;;;;;;972.00;883.63;;;32.10;99.90;;;;;;4925472;29;20407;-91
2022/07/17 06:04:48;;;;;;;963.75;875.53;;;32.30;99.90;;;;;;4924155;29;20178;-89
2022/07/17 06:07:15;;;;;;;941.35;853.92;;;32.60;99.90;;;;;;4925513;29;20062;-88
2022/07/17 06:09:47;;;;;;;;;;;32.90;99.90;;;;;;4921368;29;20213;-90
2022/07/17 06:12:19;;;;;;;1006.15;916.30;;;33.10;99.90;;;;;;4917406;29;20078;-93
2022/07/17 06:14:54;;;;;;;1023.15;933.53;;;33.30;99.90;;;;;;4916693;29;20205;-90
2022/07/17 06:20:13;;;;;;;1025.90;936.45;;;33.60;99.90;;;;;;4909199;29;20208;-91
2022/07/17 06:22:50;;;;;;;1032.40;942.50;;;33.80;99.90;;;;;;4917296;29;20233;-92
2022/07/17 06:25:24;;;;;;;1045.43;955.00;;;33.90;99.90;;;;;;4916400;29;20177;-94
2022/07/17 06:27:59;;;;;;;1041.70;951.67;;;34.10;99.90;;;;;;4916575;29;20207;-93
2022/07/17 06:30:31;;;;;;;1037.70;948.00;;;34.30;99.90;;;;;;4913402;29;20224;-91
2022/07/17 06:33:09;;;;;;;1034.07;944.58;;;34.50;99.90;;;;;;4916884;29;20220;-92
2022/07/17 06:35:46;;;;;;;892.28;808.47;;;34.70;99.90;;;;;;4915382;29;20292;-92
2022/07/17 06:38:13;;;;;;;871.78;788.22;;;34.70;99.90;;;;;;4913386;29;20228;-90
2022/07/17 06:40:44;;;;;;;1002.75;912.67;;;34.60;99.90;;;;;;4917556;29;20202;-93
2022/07/17 06:43:22;;;;;;;997.58;908.38;;;33.90;99.90;;;;;;4904988;29;20652;-91
2022/07/17 06:45:58;;;;;;;740.05;661.72;;;32.90;99.90;;;;;;4912710;29;20672;-91
2022/07/17 06:48:39;;;;;;;945.83;857.65;;;31.60;99.90;;;;;;4915652;29;20197;-92
2022/07/17 06:51:09;;;;;;;;;;;30.10;99.90;;;;;;4915472;29;20135;-92
2022/07/17 06:53:38;;;;;;;;;;;28.70;99.90;;;;;;4917307;29;20358;-88
2022/07/17 06:56:12;;;;;;;;;;;27.70;99.90;;;;;;4916385;29;20491;-89
2022/07/17 06:58:44;;;;;;;925.30;838.03;;;27.20;99.90;;;;;;4916326;29;20195;-92
2022/07/17 07:01:21;;;;;;;;;;;26.50;99.90;;;;;;4916896;29;20060;-92
2022/07/17 07:03:55;;;;;;;;;;;25.70;99.90;;;;;;4918045;29;19958;-94
2022/07/17 07:06:25;;;;;;;;;;;25.20;99.90;;;;;;4917496;29;20004;-87
2022/07/17 07:08:52;;;;;;;796.10;711.80;;;25.20;99.90;;;;;;4917477;29;20290;-87
2022/07/17 07:11:31;;;;;;;824.77;741.47;;;25.20;99.90;;;;;;4915604;29;20590;-87
2022/07/17 07:13:58;;;;;;;763.97;680.60;;;25.10;99.90;;;;;;4916742;29;20198;-86
2022/07/17 07:16:26;;;;;;;761.60;675.57;;;25.00;99.90;;;;;;4915288;29;20206;-88
2022/07/17 07:18:53;;;;;;;;;;;25.00;99.90;;;;;;4915443;29;20044;-88
2022/07/17 07:21:20;;;;;;;;;;;24.70;99.90;;;;;;4914855;29;19927;-88
2022/07/17 07:23:47;;;;;;;755.20;673.03;;;24.20;99.90;;;;;;4914663;29;20215;-86
2022/07/17 07:26:14;;;;;;;735.73;646.83;;;23.60;99.90;;;;;;4914269;29;20206;-87
2022/07/17 07:28:41;;;;;;;;;;;22.90;99.90;;;;;;4918076;29;20044;-87
2022/07/17 07:31:08;;;;;;;;;;;22.40;99.90;;;;;;4919107;29;19930;-86
2022/07/17 07:33:36;;;;;;;;;;;21.80;99.90;;;;;;4919258;29;19950;-87
2022/07/17 07:36:03;;;;;;;;;;;21.40;99.90;;;;;;4915009;29;19927;-87
2022/07/17 07:38:30;;;;;;;;;;;21.10;99.90;;;;;;4901020;29;19951;-88
2022/07/17 07:40:57;;;;;;;;;;;20.80;99.90;;;;;;4902962;29;19991;-88
2022/07/17 07:43:24;;;;;;;;;;;21.30;99.90;;;;;;4905154;29;19987;-87
2022/07/17 07:45:51;;;;;;;;;;;22.30;99.90;;;;;;4901675;29;19923;-87
2022/07/17 07:48:26;;;;;;;722.63;596.57;;;22.60;99.90;;;;;;4919861;29;20409;-91
2022/07/17 07:50:56;;;;;;;720.80;572.00;;;22.60;99.90;;;;;;4919457;29;20213;-93
2022/07/17 07:53:33;;;;;;;730.57;578.00;;;22.40;99.90;;;;;;4918699;29;20586;-90
2022/07/17 07:56:03;;;;;;;720.17;572.47;;;22.40;99.90;;;;;;4918494;29;20205;-91
2022/07/17 07:58:31;;;;;;;704.57;553.33;;;22.40;99.90;;;;;;4918797;29;20261;-95
2022/07/17 08:01:06;;;;;;;720.33;578.90;;;22.30;99.90;;;;;;4918175;29;20205;-91
2022/07/17 08:03:33;;;;;;;720.83;560.30;;;22.00;99.90;;;;;;4934301;29;20213;-88
2022/07/17 08:06:30;;;;;;;723.23;585.70;;;21.80;99.90;;;;;;4940911;29;20186;-91
2022/07/17 08:09:08;;;;;;;718.03;552.67;;;21.90;99.90;;;;;;4924377;29;20359;-90
2022/07/17 08:11:54;;;;;;;718.93;550.33;;;22.10;99.90;;;;;;4906309;29;20253;-86
2022/07/17 08:14:21;;;;;;;716.87;557.37;;;22.20;99.90;;;;;;4926464;29;20233;-88
2022/07/17 08:16:48;;;;;;;718.90;566.53;;;22.20;99.90;;;;;;4939236;29;20194;-89
2022/07/17 08:19:16;;;;;;;720.47;564.37;;;22.00;99.90;;;;;;4917748;29;20197;-87
2022/07/17 08:21:44;;;;;;;716.77;567.73;;;21.90;99.90;;;;;;4917894;29;20198;-87
2022/07/17 08:24:18;;;;;;;711.47;513.37;;;22.00;99.90;;;;;;4928311;29;20198;-91
2022/07/17 08:26:52;;;;;;;722.60;549.75;;;22.30;99.90;;;;;;4939599;29;20257;-91
2022/07/17 08:29:19;;;;;;;713.67;565.83;;;23.00;99.90;;;;;;4914653;29;20106;-88
2022/07/17 08:31:47;;;;;;;705.47;554.00;;;23.70;99.90;;;;;;4904672;29;20220;-89
2022/07/17 08:34:14;;;;;;;705.17;564.67;;;24.40;99.90;;;;;;4910462;29;20197;-87
2022/07/17 08:36:42;;;;;;;705.27;575.73;;;24.70;99.90;;;;;;4917135;29;20536;-88
2022/07/17 08:39:10;;;;;;;717.23;599.43;;;25.20;99.90;;;;;;4902890;29;20237;-90
2022/07/17 08:41:38;;;;;;;;;;;25.80;99.90;;;;;;4898767;29;20120;-89
2022/07/17 08:44:05;;;;;;;730.73;649.43;;;26.20;99.90;;;;;;4901850;29;20246;-88
2022/07/17 08:46:34;;;;;;;746.90;666.23;;;26.50;99.90;;;;;;4921142;29;20198;-86
2022/07/17 08:49:04;;;;;;;762.27;681.30;;;26.30;99.90;;;;;;4918903;29;20202;-93
2022/07/17 08:54:38;;;;;;;753.50;672.57;;;25.70;99.90;;;;;;4915312;29;20204;-89
2022/07/17 08:57:17;;;;;;;754.93;674.23;;;25.80;99.90;;;;;;4932293;29;20213;-93
2022/07/17 08:59:48;;;;;;;753.80;672.83;;;25.50;99.90;;;;;;4916389;29;20257;-90
2022/07/17 09:02:15;;;;;;;751.47;670.47;;;25.10;99.90;;;;;;4906957;29;20607;-88
2022/07/17 09:04:58;;;;;;;755.57;674.37;;;25.40;99.90;;;;;;4904283;29;20731;-93
2022/07/17 09:07:32;;;;;;;767.90;686.20;;;25.80;99.90;;;;;;4902197;29;20202;-89
2022/07/17 09:10:01;;;;;;;759.57;678.37;;;26.00;99.90;;;;;;4921165;29;20291;-88
2022/07/17 09:12:29;;;;;;;744.93;664.33;;;25.90;99.90;;;;;;4907085;29;20205;-88
2022/07/17 09:14:57;;;;;;;765.13;683.73;;;26.30;99.90;;;;;;4903175;29;20199;-90
2022/07/17 09:17:38;;;;;;;766.00;684.77;;;26.70;99.90;;;;;;4922654;29;19988;-90
2022/07/17 09:20:13;;;;;;;755.03;674.00;;;26.70;99.90;;;;;;4930613;29;20306;-88
2022/07/17 09:26:03;;;;;;;750.83;669.97;;;26.10;99.90;;;;;;4933047;28;20261;-92
2022/07/17 09:28:55;;;;;;;753.47;672.60;;;26.10;99.90;;;;;;4930599;28;20217;-91
2022/07/17 09:34:21;;;;;;;754.87;674.00;;;26.80;99.90;;;;;;4905167;29;20186;-89
2022/07/17 09:37:00;;;;;;;761.00;680.13;;;26.70;99.90;;;;;;4903688;29;20669;-90
2022/07/17 09:39:35;;;;;;;760.97;680.00;;;26.70;99.90;;;;;;4906714;29;20714;-87
2022/07/17 09:42:04;;;;;;;765.00;683.87;;;27.10;99.90;;;;;;4903955;29;20684;-88
2022/07/17 09:44:31;;;;;;;758.93;677.87;;;27.40;99.90;;;;;;4907486;29;20206;-89
2022/07/17 09:47:04;;;;;;;;;;;27.40;99.90;;;;;;4912084;29;20210;-91
2022/07/17 09:49:35;;;;;;;757.00;676.27;;;27.20;99.90;;;;;;4909931;29;20030;-94
2022/07/17 09:52:03;;;;;;;759.67;678.60;;;27.10;99.90;;;;;;4903694;29;20301;-87
2022/07/17 09:54:37;;;;;;;750.20;669.23;;;27.00;99.90;;;;;;4909838;29;20235;-90
2022/07/17 09:57:06;;;;;;;750.23;669.37;;;26.80;99.90;;;;;;4901381;29;20197;-87
2022/07/17 09:59:38;;;;;;;754.50;673.17;;;26.80;99.90;;;;;;4915127;29;20250;-86
2022/07/17 10:02:05;;;;;;;757.33;675.80;;;26.70;99.90;;;;;;4915699;29;20201;-86
2022/07/17 10:04:34;;;;;;;751.47;670.43;;;26.60;99.90;;;;;;4915449;29;20681;-88
2022/07/17 10:07:01;;;;;;;749.00;667.93;;;26.60;99.90;;;;;;4915335;29;20202;-86
2022/07/17 10:09:28;;;;;;;755.90;674.63;;;26.70;99.90;;;;;;4914234;29;20202;-89
2022/07/17 10:11:56;;;;;;;744.47;663.60;;;26.70;99.90;;;;;;4916684;29;20313;-89
2022/07/17 10:14:24;;;;;;;737.43;656.90;;;26.50;99.90;;;;;;4915918;29;20201;-89
2022/07/17 10:16:52;;;;;;;736.73;656.10;;;26.20;99.90;;;;;;4906903;29;20200;-87
2022/07/17 10:19:20;;;;;;;744.77;663.67;;;26.00;99.90;;;;;;4917071;29;20212;-87
2022/07/17 10:21:56;;;;;;;738.13;657.17;;;26.10;99.90;;;;;;4915976;29;20197;-88
2022/07/17 10:24:24;;;;;;;739.47;658.40;;;26.10;99.90;;;;;;4912979;29;20201;-87
2022/07/17 10:26:51;;;;;;;739.30;658.33;;;26.30;99.90;;;;;;4915494;29;20566;-85
2022/07/17 10:29:35;;;;;;;737.20;656.43;;;26.50;99.90;;;;;;4915763;29;20198;-86
2022/07/17 10:32:03;;;;;;;723.37;642.90;;;26.80;99.90;;;;;;4913033;29;20221;-86
2022/07/17 10:34:41;;;;;;;735.43;654.90;;;27.10;99.90;;;;;;4913865;29;20190;-88
2022/07/17 10:37:23;;;;;;;744.70;663.43;;;27.10;99.90;;;;;;4915433;29;20209;-88
2022/07/17 10:39:59;;;;;;;740.87;659.97;;;26.80;99.90;;;;;;4914325;29;20296;-88
2022/07/17 10:42:48;;;;;;;737.27;656.87;;;26.80;99.90;;;;;;4914755;29;20261;-86
2022/07/17 10:45:18;;;;;;;739.73;659.33;;;27.00;99.90;;;;;;4915513;29;20640;-87
2022/07/17 10:47:47;;;;;;;743.43;662.70;;;27.10;99.90;;;;;;4915335;29;20198;-87
2022/07/17 10:50:14;;;;;;;748.77;667.90;;;27.00;99.90;;;;;;4915357;29;20197;-87
2022/07/17 10:52:42;;;;;;;750.90;670.10;;;27.00;99.90;;;;;;4915304;29;20208;-87
2022/07/17 10:55:19;;;;;;;756.60;675.30;;;27.00;99.90;;;;;;4915673;29;20245;-87
2022/07/17 10:57:48;;;;;;;755.70;674.67;;;26.90;99.90;;;;;;4914361;29;20214;-87
2022/07/17 11:00:17;;;;;;;744.10;663.43;;;26.90;99.90;;;;;;4915068;29;20253;-87
2022/07/17 11:02:45;;;;;;;743.27;662.47;;;26.60;99.90;;;;;;4917498;29;20284;-88
2022/07/17 11:05:14;;;;;;;738.37;657.57;;;26.50;99.90;;;;;;4918620;29;20669;-87
2022/07/17 11:07:58;;;;;;;;;;;26.30;99.90;;;;;;4918951;29;20209;-87
2022/07/17 11:10:27;;;;;;;732.13;651.20;;;26.10;99.90;;;;;;4909694;29;20051;-89
2022/07/17 11:12:55;;;;;;;724.33;643.20;;;25.90;99.90;;;;;;4919074;29;20214;-88
2022/07/17 11:15:23;;;;;;;720.60;632.50;;;25.80;99.90;;;;;;4918948;29;20209;-88
2022/07/17 11:17:50;;;;;;;;;;;25.60;99.90;;;;;;4919136;29;20048;-87
2022/07/17 11:20:17;;;;;;;;;;;25.40;99.90;;;;;;4919322;29;19930;-88
2022/07/17 11:22:44;;;;;;;;;;;25.20;99.90;;;;;;4919742;29;19927;-87
2022/07/17 11:25:12;;;;;;;;;;;25.10;99.90;;;;;;4919525;29;19957;-87
2022/07/17 11:27:39;;;;;;;;;;;24.90;99.90;;;;;;4905973;29;20286;-87
2022/07/17 11:30:10;;;;;;;;;;;24.80;99.90;;;;;;4919084;29;20390;-87
2022/07/17 11:32:39;;;;;;;;;;;24.60;99.90;;;;;;4918796;29;20244;-86
2022/07/17 11:35:14;;;;;;;;;;;24.60;99.90;;;;;;4919404;29;19923;-88
2022/07/17 11:37:41;;;;;;;;;;;24.50;99.90;;;;;;4918509;29;19923;-87
2022/07/17 11:40:08;;;;;;;;;;;24.50;99.90;;;;;;4919308;29;19996;-87
2022/07/17 11:42:35;;;;;;;;;;;24.40;99.90;;;;;;4918622;29;19930;-87
2022/07/17 11:45:02;;;;;;;;;;;24.40;99.90;;;;;;4918728;29;20386;-87
2022/07/17 11:47:29;;;;;;;;;;;24.50;99.90;;;;;;4919314;29;19927;-89
2022/07/17 11:50:06;;;;;;;;;;;24.50;99.90;;;;;;4918959;29;20342;-89
2022/07/17 11:52:40;;;;;;;;;;;24.50;99.90;;;;;;4918499;29;19930;-88
2022/07/17 11:55:08;;;;;;;;;;;24.50;99.90;;;;;;4918930;29;19953;-88
2022/07/17 11:57:42;;;;;;;;;;;24.40;99.90;;;;;;4918714;29;19924;-89
2022/07/17 12:00:09;;;;;;;;;;;24.40;99.90;;;;;;4918584;29;19927;-87
2022/07/17 12:02:36;;;;;;;;;;;24.40;99.90;;;;;;4918439;29;19930;-88
2022/07/17 12:05:03;;;;;;;;;;;24.40;99.90;;;;;;4918950;29;19930;-87
2022/07/17 12:07:45;;;;;;;712.70;584.40;;;24.30;99.90;;;;;;4918586;29;20443;-88
2022/07/17 12:10:17;;;;;;;712.63;580.97;;;24.30;99.90;;;;;;4918450;29;20201;-88
2022/07/17 12:12:56;;;;;;;712.13;571.83;;;24.20;99.90;;;;;;4917765;29;20272;-87
2022/07/17 12:15:34;;;;;;;710.27;578.77;;;24.20;99.90;;;;;;4919361;29;20197;-88
2022/07/17 12:18:02;;;;;;;709.97;573.07;;;24.00;99.90;;;;;;4918125;29;20197;-89
2022/07/17 12:20:42;;;;;;;712.70;578.27;;;23.90;99.90;;;;;;4918245;29;20201;-88
2022/07/17 12:23:26;;;;;;;711.53;577.03;;;24.00;99.90;;;;;;4918171;29;20229;-89
2022/07/17 12:26:03;;;;;;;711.13;578.17;;;24.00;99.90;;;;;;4918434;29;20201;-88
2022/07/17 12:28:31;;;;;;;710.63;575.43;;;24.00;99.90;;;;;;4918234;29;20260;-89
2022/07/17 12:30:58;;;;;;;707.53;570.37;;;24.00;99.90;;;;;;4917842;29;20237;-88
2022/07/17 12:33:25;;;;;;;710.60;576.20;;;24.10;99.90;;;;;;4917603;29;20201;-88
2022/07/17 12:35:52;;;;;;;709.03;575.97;;;24.10;99.90;;;;;;4917628;29;20649;-89
2022/07/17 12:38:20;;;;;;;710.00;577.47;;;24.10;99.90;;;;;;4917197;29;20576;-88
2022/07/17 12:40:47;;;;;;;706.80;573.97;;;24.10;99.90;;;;;;4917404;29;20220;-88
2022/07/17 12:43:15;;;;;;;709.23;575.80;;;24.10;99.90;;;;;;4917434;29;20241;-87
2022/07/17 12:45:42;;;;;;;710.90;581.40;;;24.10;99.90;;;;;;4917187;29;20652;-88
2022/07/17 12:48:09;;;;;;;707.13;578.27;;;24.20;99.90;;;;;;4917209;29;20194;-87
2022/07/17 12:50:36;;;;;;;709.23;581.97;;;24.10;99.90;;;;;;4917276;29;20675;-88
2022/07/17 12:53:17;;;;;;;708.90;579.27;;;24.10;99.90;;;;;;4918158;29;20274;-93
2022/07/17 12:55:45;;;;;;;711.53;580.70;;;24.10;99.90;;;;;;4917665;29;20257;-87
2022/07/17 12:58:12;;;;;;;710.77;589.27;;;24.20;99.90;;;;;;4917322;29;20257;-88
2022/07/17 13:00:39;;;;;;;708.80;582.90;;;24.10;99.90;;;;;;4917493;29;20204;-88
2022/07/17 13:03:06;;;;;;;711.77;588.70;;;24.10;99.90;;;;;;4917093;29;20202;-88
2022/07/17 13:05:33;;;;;;;710.33;589.97;;;24.10;99.90;;;;;;4917377;29;20224;-88
2022/07/17 13:08:00;;;;;;;710.20;585.30;;;24.10;99.90;;;;;;4917197;29;20205;-88
2022/07/17 13:10:34;;;;;;;709.60;585.30;;;24.20;99.90;;;;;;4927143;29;20196;-92
2022/07/17 13:13:14;;;;;;;710.70;586.17;;;24.10;99.90;;;;;;4941947;29;20273;-89
2022/07/17 13:15:45;;;;;;;710.43;586.60;;;24.10;99.90;;;;;;4942114;28;20197;-91
2022/07/17 13:18:21;;;;;;;709.20;582.37;;;24.10;99.90;;;;;;4941899;28;20193;-90
2022/07/17 13:21:02;;;;;;;712.17;586.97;;;24.00;99.90;;;;;;4939184;28;20189;-92
2022/07/17 13:23:47;;;;;;;705.60;577.80;;;24.10;99.90;;;;;;4923116;29;20231;-91
2022/07/17 13:26:16;;;;;;;710.97;587.33;;;24.00;99.90;;;;;;4921552;29;20716;-90
2022/07/17 13:29:08;;;;;;;710.50;581.80;;;24.10;99.90;;;;;;4922707;29;20250;-91
2022/07/17 13:34:48;;;;;;;710.87;581.97;;;24.10;99.90;;;;;;4941076;29;20250;-91
2022/07/17 13:40:49;;;;;;;727.47;582.13;;;24.00;99.90;;;;;;5079437;23;20235;-94